sensor_id;sensor_type;location;lat;lon;timestamp;P1;durP1;ratioP1;P2;durP2;ratioP2
47353;SDS011;50657;48.830;2.282;2022-09-01T00:01:25;2.53;;;0.93;;
47353;SDS011;50657;48.830;2.282;2022-09-01T00:03:53;3.28;;;1.25;;
47353;SDS011;50657;48.830;2.282;2022-09-01T00:06:24;3.03;;;1.20;;
47353;SDS011;50657;48.830;2.282;2022-09-01T00:08:54;3.50;;;1.48;;
47353;SDS011;50657;48.830;2.282;2022-09-01T00:11:24;2.53;;;1.52;;
47353;SDS011;50657;48.830;2.282;2022-09-01T00:13:53;4.88;;;1.83;;
47353;SDS011;50657;48.830;2.282;2022-09-01T00:16:21;3.08;;;1.77;;
47353;SDS011;50657;48.830;2.282;2022-09-01T00:18:50;4.72;;;1.48;;
47353;SDS011;50657;48.830;2.282;2022-09-01T00:21:20;3.17;;;0.80;;
47353;SDS011;50657;48.830;2.282;2022-09-01T00:23:49;2.25;;;1.02;;
47353;SDS011;50657;48.830;2.282;2022-09-01T00:26:18;2.70;;;1.05;;
47353;SDS011;50657;48.830;2.282;2022-09-01T00:28:45;2.42;;;1.00;;
47353;SDS011;50657;48.830;2.282;2022-09-01T00:31:12;2.25;;;1.70;;
47353;SDS011;50657;48.830;2.282;2022-09-01T00:33:40;1.13;;;0.80;;
47353;SDS011;50657;48.830;2.282;2022-09-01T00:36:07;2.72;;;1.48;;
47353;SDS011;50657;48.830;2.282;2022-09-01T00:38:35;1.88;;;1.08;;
47353;SDS011;50657;48.830;2.282;2022-09-01T00:41:02;4.57;;;1.20;;
47353;SDS011;50657;48.830;2.282;2022-09-01T00:43:37;4.15;;;1.30;;
47353;SDS011;50657;48.830;2.282;2022-09-01T00:46:09;1.27;;;1.13;;
47353;SDS011;50657;48.830;2.282;2022-09-01T00:48:38;3.22;;;1.10;;
47353;SDS011;50657;48.830;2.282;2022-09-01T00:51:06;3.55;;;1.20;;
47353;SDS011;50657;48.830;2.282;2022-09-01T00:53:34;1.65;;;1.55;;
47353;SDS011;50657;48.830;2.282;2022-09-01T00:56:04;1.73;;;1.17;;
47353;SDS011;50657;48.830;2.282;2022-09-01T00:58:32;2.20;;;1.17;;
47353;SDS011;50657;48.830;2.282;2022-09-01T01:01:02;3.95;;;0.90;;
47353;SDS011;50657;48.830;2.282;2022-09-01T01:03:30;7.28;;;1.40;;
47353;SDS011;50657;48.830;2.282;2022-09-01T01:05:59;2.03;;;1.08;;
47353;SDS011;50657;48.830;2.282;2022-09-01T01:08:29;1.83;;;1.40;;
47353;SDS011;50657;48.830;2.282;2022-09-01T01:10:59;3.03;;;1.13;;
47353;SDS011;50657;48.830;2.282;2022-09-01T01:13:32;4.32;;;1.42;;
47353;SDS011;50657;48.830;2.282;2022-09-01T01:16:15;2.15;;;0.98;;
47353;SDS011;50657;48.830;2.282;2022-09-01T01:18:42;3.75;;;1.63;;
47353;SDS011;50657;48.830;2.282;2022-09-01T01:21:13;1.10;;;0.80;;
47353;SDS011;50657;48.830;2.282;2022-09-01T01:24:01;4.68;;;1.65;;
47353;SDS011;50657;48.830;2.282;2022-09-01T01:26:36;2.83;;;1.17;;
47353;SDS011;50657;48.830;2.282;2022-09-01T01:29:03;1.42;;;0.75;;
47353;SDS011;50657;48.830;2.282;2022-09-01T01:31:34;1.33;;;1.02;;
47353;SDS011;50657;48.830;2.282;2022-09-01T01:34:02;3.50;;;1.13;;
47353;SDS011;50657;48.830;2.282;2022-09-01T01:36:35;6.07;;;1.20;;
47353;SDS011;50657;48.830;2.282;2022-09-01T01:39:09;3.70;;;1.10;;
47353;SDS011;50657;48.830;2.282;2022-09-01T01:41:40;5.38;;;1.60;;
47353;SDS011;50657;48.830;2.282;2022-09-01T01:44:14;3.03;;;1.40;;
47353;SDS011;50657;48.830;2.282;2022-09-01T01:46:43;2.35;;;0.85;;
47353;SDS011;50657;48.830;2.282;2022-09-01T01:49:14;4.80;;;0.82;;
47353;SDS011;50657;48.830;2.282;2022-09-01T01:51:46;2.13;;;0.90;;
47353;SDS011;50657;48.830;2.282;2022-09-01T01:54:20;3.60;;;1.08;;
47353;SDS011;50657;48.830;2.282;2022-09-01T01:56:49;6.72;;;1.35;;
47353;SDS011;50657;48.830;2.282;2022-09-01T01:59:16;4.80;;;1.05;;
47353;SDS011;50657;48.830;2.282;2022-09-01T02:01:44;1.95;;;0.82;;
47353;SDS011;50657;48.830;2.282;2022-09-01T02:04:15;5.10;;;0.88;;
47353;SDS011;50657;48.830;2.282;2022-09-01T02:06:44;1.33;;;0.88;;
47353;SDS011;50657;48.830;2.282;2022-09-01T02:09:14;1.52;;;0.75;;
47353;SDS011;50657;48.830;2.282;2022-09-01T02:11:43;4.07;;;0.90;;
47353;SDS011;50657;48.830;2.282;2022-09-01T02:14:13;0.88;;;0.73;;
47353;SDS011;50657;48.830;2.282;2022-09-01T02:16:40;2.38;;;0.60;;
47353;SDS011;50657;48.830;2.282;2022-09-01T02:19:08;4.50;;;1.00;;
47353;SDS011;50657;48.830;2.282;2022-09-01T02:21:37;2.47;;;1.63;;
47353;SDS011;50657;48.830;2.282;2022-09-01T02:24:17;2.17;;;0.65;;
47353;SDS011;50657;48.830;2.282;2022-09-01T02:26:45;1.67;;;0.80;;
47353;SDS011;50657;48.830;2.282;2022-09-01T02:29:18;6.75;;;0.95;;
47353;SDS011;50657;48.830;2.282;2022-09-01T02:31:47;1.88;;;0.82;;
47353;SDS011;50657;48.830;2.282;2022-09-01T02:34:16;9.18;;;1.50;;
47353;SDS011;50657;48.830;2.282;2022-09-01T02:36:46;2.15;;;0.85;;
47353;SDS011;50657;48.830;2.282;2022-09-01T02:39:19;3.70;;;1.48;;
47353;SDS011;50657;48.830;2.282;2022-09-01T02:41:48;5.10;;;1.52;;
47353;SDS011;50657;48.830;2.282;2022-09-01T02:44:23;2.45;;;1.05;;
47353;SDS011;50657;48.830;2.282;2022-09-01T02:46:52;1.02;;;0.70;;
47353;SDS011;50657;48.830;2.282;2022-09-01T02:49:22;4.50;;;0.85;;
47353;SDS011;50657;48.830;2.282;2022-09-01T02:51:53;1.23;;;0.73;;
47353;SDS011;50657;48.830;2.282;2022-09-01T02:54:25;1.33;;;1.17;;
47353;SDS011;50657;48.830;2.282;2022-09-01T02:56:55;2.17;;;0.75;;
47353;SDS011;50657;48.830;2.282;2022-09-01T02:59:25;7.18;;;1.15;;
47353;SDS011;50657;48.830;2.282;2022-09-01T03:01:57;4.68;;;1.40;;
47353;SDS011;50657;48.830;2.282;2022-09-01T03:04:24;3.60;;;2.53;;
47353;SDS011;50657;48.830;2.282;2022-09-01T03:06:53;2.63;;;1.05;;
47353;SDS011;50657;48.830;2.282;2022-09-01T03:09:23;2.50;;;0.73;;
47353;SDS011;50657;48.830;2.282;2022-09-01T03:11:50;6.07;;;1.48;;
47353;SDS011;50657;48.830;2.282;2022-09-01T03:14:19;7.43;;;1.05;;
47353;SDS011;50657;48.830;2.282;2022-09-01T03:16:49;0.63;;;0.60;;
47353;SDS011;50657;48.830;2.282;2022-09-01T03:19:18;2.05;;;1.27;;
47353;SDS011;50657;48.830;2.282;2022-09-01T03:21:46;4.55;;;2.03;;
47353;SDS011;50657;48.830;2.282;2022-09-01T03:24:17;0.88;;;0.47;;
47353;SDS011;50657;48.830;2.282;2022-09-01T03:26:46;2.15;;;1.52;;
47353;SDS011;50657;48.830;2.282;2022-09-01T03:29:17;2.13;;;1.00;;
47353;SDS011;50657;48.830;2.282;2022-09-01T03:31:45;7.85;;;1.15;;
47353;SDS011;50657;48.830;2.282;2022-09-01T03:34:14;3.35;;;1.33;;
47353;SDS011;50657;48.830;2.282;2022-09-01T03:36:48;2.22;;;1.08;;
47353;SDS011;50657;48.830;2.282;2022-09-01T03:39:19;3.08;;;1.40;;
47353;SDS011;50657;48.830;2.282;2022-09-01T03:41:46;3.80;;;0.88;;
47353;SDS011;50657;48.830;2.282;2022-09-01T03:44:14;3.53;;;1.02;;
47353;SDS011;50657;48.830;2.282;2022-09-01T03:46:42;1.27;;;0.95;;
47353;SDS011;50657;48.830;2.282;2022-09-01T03:49:10;1.42;;;0.90;;
47353;SDS011;50657;48.830;2.282;2022-09-01T03:51:41;0.60;;;0.55;;
47353;SDS011;50657;48.830;2.282;2022-09-01T03:54:09;1.23;;;1.08;;
47353;SDS011;50657;48.830;2.282;2022-09-01T03:56:37;0.90;;;0.90;;
47353;SDS011;50657;48.830;2.282;2022-09-01T03:59:12;1.67;;;0.82;;
47353;SDS011;50657;48.830;2.282;2022-09-01T04:01:42;0.93;;;0.93;;
47353;SDS011;50657;48.830;2.282;2022-09-01T04:04:11;2.08;;;0.50;;
47353;SDS011;50657;48.830;2.282;2022-09-01T04:06:40;3.20;;;0.73;;
47353;SDS011;50657;48.830;2.282;2022-09-01T04:09:10;2.63;;;1.77;;
47353;SDS011;50657;48.830;2.282;2022-09-01T04:11:40;3.47;;;1.77;;
47353;SDS011;50657;48.830;2.282;2022-09-01T04:14:10;5.78;;;1.17;;
47353;SDS011;50657;48.830;2.282;2022-09-01T04:16:39;2.65;;;1.05;;
47353;SDS011;50657;48.830;2.282;2022-09-01T04:19:25;1.20;;;0.77;;
47353;SDS011;50657;48.830;2.282;2022-09-01T04:21:57;3.60;;;0.90;;
47353;SDS011;50657;48.830;2.282;2022-09-01T04:24:31;4.18;;;1.25;;
47353;SDS011;50657;48.830;2.282;2022-09-01T04:27:00;0.70;;;0.70;;
47353;SDS011;50657;48.830;2.282;2022-09-01T04:29:28;2.25;;;0.73;;
47353;SDS011;50657;48.830;2.282;2022-09-01T04:31:59;3.88;;;2.22;;
47353;SDS011;50657;48.830;2.282;2022-09-01T04:34:30;7.00;;;0.70;;
47353;SDS011;50657;48.830;2.282;2022-09-01T04:37:05;3.90;;;0.88;;
47353;SDS011;50657;48.830;2.282;2022-09-01T04:39:34;3.85;;;1.50;;
47353;SDS011;50657;48.830;2.282;2022-09-01T04:42:03;1.38;;;0.77;;
47353;SDS011;50657;48.830;2.282;2022-09-01T04:44:33;1.02;;;0.82;;
47353;SDS011;50657;48.830;2.282;2022-09-01T04:47:02;3.75;;;1.15;;
47353;SDS011;50657;48.830;2.282;2022-09-01T04:49:30;7.65;;;1.65;;
47353;SDS011;50657;48.830;2.282;2022-09-01T04:51:58;8.77;;;1.23;;
47353;SDS011;50657;48.830;2.282;2022-09-01T04:54:27;3.78;;;0.95;;
47353;SDS011;50657;48.830;2.282;2022-09-01T04:56:57;2.10;;;0.93;;
47353;SDS011;50657;48.830;2.282;2022-09-01T04:59:27;2.45;;;1.42;;
47353;SDS011;50657;48.830;2.282;2022-09-01T05:01:58;1.23;;;1.15;;
47353;SDS011;50657;48.830;2.282;2022-09-01T05:04:27;4.70;;;1.25;;
47353;SDS011;50657;48.830;2.282;2022-09-01T05:06:59;2.60;;;1.00;;
47353;SDS011;50657;48.830;2.282;2022-09-01T05:09:34;1.65;;;1.27;;
47353;SDS011;50657;48.830;2.282;2022-09-01T05:12:34;4.35;;;1.23;;
47353;SDS011;50657;48.830;2.282;2022-09-01T05:15:01;3.20;;;2.10;;
47353;SDS011;50657;48.830;2.282;2022-09-01T05:17:31;3.38;;;0.98;;
47353;SDS011;50657;48.830;2.282;2022-09-01T05:19:58;5.15;;;1.10;;
47353;SDS011;50657;48.830;2.282;2022-09-01T05:22:26;4.80;;;1.15;;
47353;SDS011;50657;48.830;2.282;2022-09-01T05:25:00;6.05;;;1.17;;
47353;SDS011;50657;48.830;2.282;2022-09-01T05:27:38;2.45;;;0.75;;
47353;SDS011;50657;48.830;2.282;2022-09-01T05:30:06;5.47;;;1.35;;
47353;SDS011;50657;48.830;2.282;2022-09-01T05:32:34;4.15;;;1.42;;
47353;SDS011;50657;48.830;2.282;2022-09-01T05:35:04;1.35;;;0.65;;
47353;SDS011;50657;48.830;2.282;2022-09-01T05:37:34;3.88;;;0.60;;
47353;SDS011;50657;48.830;2.282;2022-09-01T05:40:05;4.55;;;1.00;;
47353;SDS011;50657;48.830;2.282;2022-09-01T05:42:40;2.78;;;1.25;;
47353;SDS011;50657;48.830;2.282;2022-09-01T05:45:08;1.67;;;0.90;;
47353;SDS011;50657;48.830;2.282;2022-09-01T05:47:36;0.82;;;0.68;;
47353;SDS011;50657;48.830;2.282;2022-09-01T05:50:03;1.52;;;0.57;;
47353;SDS011;50657;48.830;2.282;2022-09-01T05:52:36;4.30;;;0.93;;
47353;SDS011;50657;48.830;2.282;2022-09-01T05:55:06;2.13;;;1.73;;
47353;SDS011;50657;48.830;2.282;2022-09-01T05:57:38;1.08;;;1.08;;
47353;SDS011;50657;48.830;2.282;2022-09-01T06:00:06;2.78;;;1.10;;
47353;SDS011;50657;48.830;2.282;2022-09-01T06:02:38;0.63;;;0.63;;
47353;SDS011;50657;48.830;2.282;2022-09-01T06:05:08;1.75;;;0.35;;
47353;SDS011;50657;48.830;2.282;2022-09-01T06:07:38;2.78;;;0.95;;
47353;SDS011;50657;48.830;2.282;2022-09-01T06:10:09;1.13;;;1.02;;
47353;SDS011;50657;48.830;2.282;2022-09-01T06:12:39;3.30;;;1.52;;
47353;SDS011;50657;48.830;2.282;2022-09-01T06:15:08;1.60;;;1.20;;
47353;SDS011;50657;48.830;2.282;2022-09-01T06:17:41;8.82;;;1.73;;
47353;SDS011;50657;48.830;2.282;2022-09-01T06:20:09;3.42;;;0.88;;
47353;SDS011;50657;48.830;2.282;2022-09-01T06:22:38;2.88;;;0.65;;
47353;SDS011;50657;48.830;2.282;2022-09-01T06:25:05;2.05;;;0.75;;
47353;SDS011;50657;48.830;2.282;2022-09-01T06:27:38;13.68;;;1.40;;
47353;SDS011;50657;48.830;2.282;2022-09-01T06:30:09;2.35;;;1.45;;
47353;SDS011;50657;48.830;2.282;2022-09-01T06:32:47;4.75;;;1.17;;
47353;SDS011;50657;48.830;2.282;2022-09-01T06:35:16;2.83;;;0.63;;
47353;SDS011;50657;48.830;2.282;2022-09-01T06:37:44;3.70;;;1.02;;
47353;SDS011;50657;48.830;2.282;2022-09-01T06:40:29;5.13;;;1.95;;
47353;SDS011;50657;48.830;2.282;2022-09-01T06:42:58;7.07;;;1.15;;
47353;SDS011;50657;48.830;2.282;2022-09-01T06:45:27;1.92;;;1.30;;
47353;SDS011;50657;48.830;2.282;2022-09-01T06:47:55;5.38;;;1.38;;
47353;SDS011;50657;48.830;2.282;2022-09-01T06:50:22;6.93;;;1.00;;
47353;SDS011;50657;48.830;2.282;2022-09-01T06:52:52;1.40;;;1.10;;
47353;SDS011;50657;48.830;2.282;2022-09-01T06:55:26;2.35;;;1.50;;
47353;SDS011;50657;48.830;2.282;2022-09-01T06:57:58;6.57;;;1.13;;
47353;SDS011;50657;48.830;2.282;2022-09-01T07:00:25;7.72;;;1.50;;
47353;SDS011;50657;48.830;2.282;2022-09-01T07:02:53;2.47;;;1.83;;
47353;SDS011;50657;48.830;2.282;2022-09-01T07:05:37;4.50;;;1.10;;
47353;SDS011;50657;48.830;2.282;2022-09-01T07:08:05;5.35;;;1.73;;
47353;SDS011;50657;48.830;2.282;2022-09-01T07:10:54;9.52;;;2.13;;
47353;SDS011;50657;48.830;2.282;2022-09-01T07:13:24;4.28;;;2.03;;
47353;SDS011;50657;48.830;2.282;2022-09-01T07:15:52;2.97;;;0.88;;
47353;SDS011;50657;48.830;2.282;2022-09-01T07:18:23;4.32;;;1.65;;
47353;SDS011;50657;48.830;2.282;2022-09-01T07:20:51;1.20;;;1.02;;
47353;SDS011;50657;48.830;2.282;2022-09-01T07:23:20;3.90;;;1.50;;
47353;SDS011;50657;48.830;2.282;2022-09-01T07:25:49;2.25;;;1.17;;
47353;SDS011;50657;48.830;2.282;2022-09-01T07:28:27;4.45;;;1.70;;
47353;SDS011;50657;48.830;2.282;2022-09-01T07:30:57;4.88;;;1.70;;
47353;SDS011;50657;48.830;2.282;2022-09-01T07:33:26;3.28;;;1.23;;
47353;SDS011;50657;48.830;2.282;2022-09-01T07:35:55;3.97;;;1.67;;
47353;SDS011;50657;48.830;2.282;2022-09-01T07:38:24;4.15;;;1.63;;
47353;SDS011;50657;48.830;2.282;2022-09-01T07:40:53;2.22;;;1.48;;
47353;SDS011;50657;48.830;2.282;2022-09-01T07:43:42;2.28;;;1.45;;
47353;SDS011;50657;48.830;2.282;2022-09-01T07:46:12;1.83;;;1.15;;
47353;SDS011;50657;48.830;2.282;2022-09-01T07:48:40;2.67;;;1.20;;
47353;SDS011;50657;48.830;2.282;2022-09-01T07:51:10;3.97;;;1.52;;
47353;SDS011;50657;48.830;2.282;2022-09-01T07:53:38;2.30;;;1.58;;
47353;SDS011;50657;48.830;2.282;2022-09-01T07:56:10;3.67;;;1.95;;
47353;SDS011;50657;48.830;2.282;2022-09-01T07:58:43;3.67;;;2.20;;
47353;SDS011;50657;48.830;2.282;2022-09-01T08:01:14;3.28;;;1.48;;
47353;SDS011;50657;48.830;2.282;2022-09-01T08:03:45;3.67;;;1.20;;
47353;SDS011;50657;48.830;2.282;2022-09-01T08:06:16;2.60;;;1.23;;
47353;SDS011;50657;48.830;2.282;2022-09-01T08:08:46;2.83;;;1.27;;
47353;SDS011;50657;48.830;2.282;2022-09-01T08:11:15;2.28;;;1.83;;
47353;SDS011;50657;48.830;2.282;2022-09-01T08:13:45;4.13;;;1.63;;
47353;SDS011;50657;48.830;2.282;2022-09-01T08:16:13;3.38;;;1.35;;
47353;SDS011;50657;48.830;2.282;2022-09-01T08:18:41;5.07;;;1.65;;
47353;SDS011;50657;48.830;2.282;2022-09-01T08:21:12;5.30;;;1.40;;
47353;SDS011;50657;48.830;2.282;2022-09-01T08:23:56;2.10;;;1.40;;
47353;SDS011;50657;48.830;2.282;2022-09-01T08:26:24;3.88;;;2.13;;
47353;SDS011;50657;48.830;2.282;2022-09-01T08:28:54;1.83;;;1.73;;
47353;SDS011;50657;48.830;2.282;2022-09-01T08:31:30;2.38;;;1.67;;
47353;SDS011;50657;48.830;2.282;2022-09-01T08:33:59;2.20;;;1.00;;
47353;SDS011;50657;48.830;2.282;2022-09-01T08:36:29;3.38;;;2.00;;
47353;SDS011;50657;48.830;2.282;2022-09-01T08:38:57;7.53;;;2.20;;
47353;SDS011;50657;48.830;2.282;2022-09-01T08:41:30;1.95;;;1.33;;
47353;SDS011;50657;48.830;2.282;2022-09-01T08:44:07;8.02;;;1.50;;
47353;SDS011;50657;48.830;2.282;2022-09-01T08:46:43;2.65;;;1.20;;
47353;SDS011;50657;48.830;2.282;2022-09-01T08:49:13;4.00;;;0.88;;
47353;SDS011;50657;48.830;2.282;2022-09-01T08:52:23;4.65;;;1.30;;
47353;SDS011;50657;48.830;2.282;2022-09-01T08:54:59;4.63;;;1.65;;
47353;SDS011;50657;48.830;2.282;2022-09-01T08:57:32;5.20;;;1.48;;
47353;SDS011;50657;48.830;2.282;2022-09-01T09:00:21;2.65;;;1.02;;
47353;SDS011;50657;48.830;2.282;2022-09-01T09:02:54;5.50;;;2.33;;
47353;SDS011;50657;48.830;2.282;2022-09-01T09:05:36;2.92;;;1.08;;
47353;SDS011;50657;48.830;2.282;2022-09-01T09:08:16;3.63;;;2.22;;
47353;SDS011;50657;48.830;2.282;2022-09-01T09:10:55;10.45;;;1.20;;
47353;SDS011;50657;48.830;2.282;2022-09-01T09:13:29;2.25;;;1.25;;
47353;SDS011;50657;48.830;2.282;2022-09-01T09:16:07;2.88;;;1.45;;
47353;SDS011;50657;48.830;2.282;2022-09-01T09:18:38;1.92;;;1.10;;
47353;SDS011;50657;48.830;2.282;2022-09-01T09:21:11;4.45;;;1.17;;
47353;SDS011;50657;48.830;2.282;2022-09-01T09:23:44;6.18;;;1.50;;
47353;SDS011;50657;48.830;2.282;2022-09-01T09:26:13;5.43;;;1.80;;
47353;SDS011;50657;48.830;2.282;2022-09-01T09:28:45;2.95;;;1.05;;
47353;SDS011;50657;48.830;2.282;2022-09-01T09:31:25;8.93;;;1.55;;
47353;SDS011;50657;48.830;2.282;2022-09-01T09:33:57;2.10;;;1.65;;
47353;SDS011;50657;48.830;2.282;2022-09-01T09:36:28;2.67;;;1.55;;
47353;SDS011;50657;48.830;2.282;2022-09-01T09:39:06;1.27;;;1.17;;
47353;SDS011;50657;48.830;2.282;2022-09-01T09:41:37;2.90;;;1.42;;
47353;SDS011;50657;48.830;2.282;2022-09-01T09:44:12;2.65;;;1.40;;
47353;SDS011;50657;48.830;2.282;2022-09-01T09:46:46;7.57;;;1.58;;
47353;SDS011;50657;48.830;2.282;2022-09-01T09:49:15;5.57;;;0.82;;
47353;SDS011;50657;48.830;2.282;2022-09-01T09:51:46;6.85;;;1.58;;
47353;SDS011;50657;48.830;2.282;2022-09-01T09:54:17;2.58;;;1.15;;
47353;SDS011;50657;48.830;2.282;2022-09-01T09:56:47;3.05;;;1.10;;
47353;SDS011;50657;48.830;2.282;2022-09-01T09:59:28;2.03;;;1.40;;
47353;SDS011;50657;48.830;2.282;2022-09-01T10:01:58;6.18;;;1.67;;
47353;SDS011;50657;48.830;2.282;2022-09-01T10:04:40;16.20;;;1.88;;
47353;SDS011;50657;48.830;2.282;2022-09-01T10:07:24;4.50;;;1.35;;
47353;SDS011;50657;48.830;2.282;2022-09-01T10:12:21;3.65;;;1.33;;
47353;SDS011;50657;48.830;2.282;2022-09-01T10:14:51;4.72;;;1.08;;
47353;SDS011;50657;48.830;2.282;2022-09-01T10:17:27;23.83;;;2.90;;
47353;SDS011;50657;48.830;2.282;2022-09-01T10:20:00;5.30;;;0.80;;
47353;SDS011;50657;48.830;2.282;2022-09-01T10:22:32;7.88;;;1.10;;
47353;SDS011;50657;48.830;2.282;2022-09-01T10:25:02;2.70;;;1.10;;
47353;SDS011;50657;48.830;2.282;2022-09-01T10:27:31;3.55;;;1.25;;
47353;SDS011;50657;48.830;2.282;2022-09-01T10:30:03;2.15;;;1.15;;
47353;SDS011;50657;48.830;2.282;2022-09-01T10:32:36;4.00;;;1.20;;
47353;SDS011;50657;48.830;2.282;2022-09-01T10:35:06;3.95;;;1.23;;
47353;SDS011;50657;48.830;2.282;2022-09-01T10:37:36;6.05;;;1.50;;
47353;SDS011;50657;48.830;2.282;2022-09-01T10:40:18;6.15;;;1.50;;
47353;SDS011;50657;48.830;2.282;2022-09-01T10:42:59;2.50;;;0.95;;
47353;SDS011;50657;48.830;2.282;2022-09-01T10:45:51;1.75;;;1.63;;
47353;SDS011;50657;48.830;2.282;2022-09-01T10:48:26;5.80;;;1.10;;
47353;SDS011;50657;48.830;2.282;2022-09-01T10:53:55;4.68;;;1.10;;
47353;SDS011;50657;48.830;2.282;2022-09-01T10:56:25;6.20;;;0.90;;
47353;SDS011;50657;48.830;2.282;2022-09-01T10:59:05;1.95;;;1.25;;
47353;SDS011;50657;48.830;2.282;2022-09-01T11:07:41;2.10;;;0.40;;
47353;SDS011;50657;48.830;2.282;2022-09-01T11:10:22;2.60;;;0.38;;
47353;SDS011;50657;48.830;2.282;2022-09-01T11:13:17;6.40;;;0.52;;
47353;SDS011;50657;48.830;2.282;2022-09-01T11:16:24;1.88;;;1.15;;
47353;SDS011;50657;48.830;2.282;2022-09-01T11:18:53;2.28;;;0.40;;
47353;SDS011;50657;48.830;2.282;2022-09-01T11:21:25;3.08;;;0.57;;
47353;SDS011;50657;48.830;2.282;2022-09-01T11:26:54;2.13;;;0.73;;
47353;SDS011;50657;48.830;2.282;2022-09-01T11:32:17;2.67;;;1.03;;
47353;SDS011;50657;48.830;2.282;2022-09-01T11:34:46;2.47;;;0.50;;
47353;SDS011;50657;48.830;2.282;2022-09-01T11:37:18;1.25;;;0.60;;
47353;SDS011;50657;48.830;2.282;2022-09-01T11:39:48;1.98;;;0.50;;
47353;SDS011;50657;48.830;2.282;2022-09-01T11:42:20;1.60;;;0.40;;
47353;SDS011;50657;48.830;2.282;2022-09-01T11:44:54;0.73;;;0.50;;
47353;SDS011;50657;48.830;2.282;2022-09-01T11:47:25;16.38;;;0.30;;
47353;SDS011;50657;48.830;2.282;2022-09-01T11:49:57;0.93;;;0.30;;
47353;SDS011;50657;48.830;2.282;2022-09-01T11:52:28;1.02;;;0.30;;
47353;SDS011;50657;48.830;2.282;2022-09-01T11:54:57;0.90;;;0.47;;
47353;SDS011;50657;48.830;2.282;2022-09-01T11:57:26;2.67;;;0.20;;
47353;SDS011;50657;48.830;2.282;2022-09-01T11:59:56;2.83;;;0.30;;
47353;SDS011;50657;48.830;2.282;2022-09-01T12:02:25;0.45;;;0.10;;
47353;SDS011;50657;48.830;2.282;2022-09-01T12:04:57;2.50;;;0.43;;
47353;SDS011;50657;48.830;2.282;2022-09-01T12:07:29;2.90;;;0.40;;
47353;SDS011;50657;48.830;2.282;2022-09-01T12:10:14;0.50;;;0.40;;
47353;SDS011;50657;48.830;2.282;2022-09-01T12:12:44;0.43;;;0.20;;
47353;SDS011;50657;48.830;2.282;2022-09-01T12:15:16;2.95;;;0.30;;
47353;SDS011;50657;48.830;2.282;2022-09-01T12:17:45;4.28;;;0.50;;
47353;SDS011;50657;48.830;2.282;2022-09-01T12:20:24;0.82;;;0.40;;
47353;SDS011;50657;48.830;2.282;2022-09-01T12:22:55;8.02;;;0.43;;
47353;SDS011;50657;48.830;2.282;2022-09-01T12:25:24;0.35;;;0.20;;
47353;SDS011;50657;48.830;2.282;2022-09-01T12:27:52;1.33;;;0.38;;
47353;SDS011;50657;48.830;2.282;2022-09-01T12:30:20;1.35;;;0.20;;
47353;SDS011;50657;48.830;2.282;2022-09-01T12:32:48;3.47;;;0.25;;
47353;SDS011;50657;48.830;2.282;2022-09-01T12:35:17;3.70;;;0.20;;
47353;SDS011;50657;48.830;2.282;2022-09-01T12:37:47;1.27;;;0.30;;
47353;SDS011;50657;48.830;2.282;2022-09-01T12:40:26;0.20;;;0.10;;
47353;SDS011;50657;48.830;2.282;2022-09-01T12:42:58;3.80;;;0.47;;
47353;SDS011;50657;48.830;2.282;2022-09-01T12:45:35;5.03;;;0.40;;
47353;SDS011;50657;48.830;2.282;2022-09-01T12:48:03;2.88;;;0.30;;
47353;SDS011;50657;48.830;2.282;2022-09-01T12:50:33;0.70;;;0.30;;
47353;SDS011;50657;48.830;2.282;2022-09-01T12:53:16;1.13;;;0.25;;
47353;SDS011;50657;48.830;2.282;2022-09-01T12:55:55;1.45;;;0.80;;
47353;SDS011;50657;48.830;2.282;2022-09-01T12:58:28;0.50;;;0.47;;
47353;SDS011;50657;48.830;2.282;2022-09-01T13:00:58;1.90;;;0.25;;
47353;SDS011;50657;48.830;2.282;2022-09-01T13:03:29;2.15;;;0.28;;
47353;SDS011;50657;48.830;2.282;2022-09-01T13:05:56;0.30;;;0.30;;
47353;SDS011;50657;48.830;2.282;2022-09-01T13:08:25;0.22;;;0.20;;
47353;SDS011;50657;48.830;2.282;2022-09-01T13:10:56;1.50;;;0.20;;
47353;SDS011;50657;48.830;2.282;2022-09-01T13:13:25;0.60;;;0.20;;
47353;SDS011;50657;48.830;2.282;2022-09-01T13:15:53;0.20;;;0.20;;
47353;SDS011;50657;48.830;2.282;2022-09-01T13:18:22;1.10;;;0.20;;
47353;SDS011;50657;48.830;2.282;2022-09-01T13:20:50;0.55;;;0.25;;
47353;SDS011;50657;48.830;2.282;2022-09-01T13:23:18;1.80;;;0.20;;
47353;SDS011;50657;48.830;2.282;2022-09-01T13:25:46;4.30;;;0.17;;
47353;SDS011;50657;48.830;2.282;2022-09-01T13:28:15;1.60;;;0.20;;
47353;SDS011;50657;48.830;2.282;2022-09-01T13:30:43;0.30;;;0.20;;
47353;SDS011;50657;48.830;2.282;2022-09-01T13:33:13;4.22;;;0.30;;
47353;SDS011;50657;48.830;2.282;2022-09-01T13:35:40;0.88;;;0.30;;
47353;SDS011;50657;48.830;2.282;2022-09-01T13:38:07;2.60;;;0.98;;
47353;SDS011;50657;48.830;2.282;2022-09-01T13:40:34;1.05;;;0.20;;
47353;SDS011;50657;48.830;2.282;2022-09-01T13:43:01;1.52;;;0.40;;
47353;SDS011;50657;48.830;2.282;2022-09-01T13:45:31;0.77;;;0.30;;
47353;SDS011;50657;48.830;2.282;2022-09-01T13:47:58;6.68;;;0.30;;
47353;SDS011;50657;48.830;2.282;2022-09-01T13:50:25;0.77;;;0.13;;
47353;SDS011;50657;48.830;2.282;2022-09-01T13:52:53;0.50;;;0.50;;
47353;SDS011;50657;48.830;2.282;2022-09-01T13:55:23;6.22;;;0.30;;
47353;SDS011;50657;48.830;2.282;2022-09-01T13:57:51;0.55;;;0.30;;
47353;SDS011;50657;48.830;2.282;2022-09-01T14:00:19;1.30;;;0.20;;
47353;SDS011;50657;48.830;2.282;2022-09-01T14:02:50;1.73;;;0.10;;
47353;SDS011;50657;48.830;2.282;2022-09-01T14:05:20;0.43;;;0.20;;
47353;SDS011;50657;48.830;2.282;2022-09-01T14:07:49;0.60;;;0.60;;
47353;SDS011;50657;48.830;2.282;2022-09-01T14:10:16;0.20;;;0.20;;
47353;SDS011;50657;48.830;2.282;2022-09-01T14:12:45;0.30;;;0.20;;
47353;SDS011;50657;48.830;2.282;2022-09-01T14:15:13;0.95;;;0.50;;
47353;SDS011;50657;48.830;2.282;2022-09-01T14:17:41;0.40;;;0.30;;
47353;SDS011;50657;48.830;2.282;2022-09-01T14:20:11;1.10;;;0.30;;
47353;SDS011;50657;48.830;2.282;2022-09-01T14:22:40;0.32;;;0.20;;
47353;SDS011;50657;48.830;2.282;2022-09-01T14:25:07;1.85;;;0.30;;
47353;SDS011;50657;48.830;2.282;2022-09-01T14:27:36;0.20;;;0.20;;
47353;SDS011;50657;48.830;2.282;2022-09-01T14:30:04;0.52;;;0.50;;
47353;SDS011;50657;48.830;2.282;2022-09-01T14:32:33;0.45;;;0.45;;
47353;SDS011;50657;48.830;2.282;2022-09-01T14:35:01;0.85;;;0.25;;
47353;SDS011;50657;48.830;2.282;2022-09-01T14:37:33;0.95;;;0.20;;
47353;SDS011;50657;48.830;2.282;2022-09-01T14:40:02;0.80;;;0.20;;
47353;SDS011;50657;48.830;2.282;2022-09-01T14:42:31;0.30;;;0.30;;
47353;SDS011;50657;48.830;2.282;2022-09-01T14:44:59;2.15;;;0.30;;
47353;SDS011;50657;48.830;2.282;2022-09-01T14:47:27;0.38;;;0.35;;
47353;SDS011;50657;48.830;2.282;2022-09-01T14:49:56;4.05;;;0.30;;
47353;SDS011;50657;48.830;2.282;2022-09-01T14:52:23;0.52;;;0.20;;
47353;SDS011;50657;48.830;2.282;2022-09-01T14:54:51;0.70;;;0.28;;
47353;SDS011;50657;48.830;2.282;2022-09-01T14:57:18;0.30;;;0.30;;
47353;SDS011;50657;48.830;2.282;2022-09-01T14:59:45;0.40;;;0.20;;
47353;SDS011;50657;48.830;2.282;2022-09-01T15:02:13;0.28;;;0.22;;
47353;SDS011;50657;48.830;2.282;2022-09-01T15:04:40;0.93;;;0.40;;
47353;SDS011;50657;48.830;2.282;2022-09-01T15:07:07;0.75;;;0.30;;
47353;SDS011;50657;48.830;2.282;2022-09-01T15:09:34;0.40;;;0.20;;
47353;SDS011;50657;48.830;2.282;2022-09-01T15:12:03;0.40;;;0.40;;
47353;SDS011;50657;48.830;2.282;2022-09-01T15:14:31;3.72;;;0.30;;
47353;SDS011;50657;48.830;2.282;2022-09-01T15:16:58;0.25;;;0.20;;
47353;SDS011;50657;48.830;2.282;2022-09-01T15:19:25;0.20;;;0.20;;
47353;SDS011;50657;48.830;2.282;2022-09-01T15:21:52;0.68;;;0.28;;
47353;SDS011;50657;48.830;2.282;2022-09-01T15:24:19;3.80;;;0.25;;
47353;SDS011;50657;48.830;2.282;2022-09-01T15:26:47;0.70;;;0.20;;
47353;SDS011;50657;48.830;2.282;2022-09-01T15:29:16;0.32;;;0.25;;